createdAt,value
2023-01-25T00:02:13.991Z,2.65
2023-01-25T00:04:42.930Z,2.68
2023-01-25T00:07:11.297Z,2.69
2023-01-25T00:09:39.580Z,2.72
2023-01-25T00:12:08.018Z,2.68
2023-01-25T00:14:36.430Z,2.60
2023-01-25T00:17:05.428Z,2.55
2023-01-25T00:19:33.702Z,2.49
2023-01-25T00:22:02.761Z,2.44
2023-01-25T00:24:31.393Z,2.50
2023-01-25T00:26:59.670Z,2.50
2023-01-25T00:29:27.925Z,2.52
2023-01-25T00:32:21.246Z,2.62
2023-01-25T00:34:50.679Z,2.63
2023-01-25T00:37:39.724Z,2.58
2023-01-25T00:40:12.451Z,2.44
2023-01-25T00:42:41.352Z,2.35
2023-01-25T00:45:12.289Z,2.34
2023-01-25T00:47:41.216Z,2.29
2023-01-25T00:50:11.357Z,2.28
2023-01-25T00:52:41.524Z,2.40
2023-01-25T00:55:10.592Z,2.51
2023-01-25T00:57:40.034Z,2.49
2023-01-25T01:00:11.653Z,2.49
2023-01-25T01:02:40.075Z,2.55
2023-01-25T01:05:09.950Z,2.51
2023-01-25T01:07:39.172Z,2.42
2023-01-25T01:10:09.546Z,2.45
2023-01-25T01:12:38.111Z,2.38
2023-01-25T01:15:10.488Z,2.38
2023-01-25T01:17:39.256Z,2.45
2023-01-25T01:20:10.875Z,2.39
2023-01-25T01:22:39.459Z,2.36
2023-01-25T01:25:10.469Z,2.35
2023-01-25T01:27:39.372Z,2.37
2023-01-25T01:30:10.927Z,2.38
2023-01-25T01:32:39.720Z,2.38
2023-01-25T01:35:09.684Z,2.30
2023-01-25T01:37:42.859Z,2.37
2023-01-25T01:40:13.625Z,2.40
2023-01-25T01:42:57.050Z,2.34
2023-01-25T01:45:52.107Z,2.41
2023-01-25T01:48:32.781Z,2.41
2023-01-25T01:51:08.138Z,2.33
2023-01-25T01:53:37.701Z,2.38
2023-01-25T01:56:13.160Z,2.39
2023-01-25T01:58:42.796Z,2.31
2023-01-25T02:01:11.839Z,2.29
2023-01-25T02:03:40.884Z,2.32
2023-01-25T02:06:15.238Z,2.27
2023-01-25T02:08:44.365Z,2.31
2023-01-25T02:11:13.363Z,2.20
2023-01-25T02:13:41.847Z,2.15
2023-01-25T02:16:16.219Z,2.10
2023-01-25T02:18:44.741Z,2.05
2023-01-25T02:21:13.980Z,2.04
2023-01-25T02:23:50.234Z,2.00
2023-01-25T02:26:19.272Z,2.00
2023-01-25T02:28:50.466Z,2.03
2023-01-25T02:31:19.552Z,2.07
2023-01-25T02:33:49.716Z,2.05
2023-01-25T02:36:25.378Z,1.99
2023-01-25T02:38:57.230Z,1.94
2023-01-25T02:41:31.109Z,1.94
2023-01-25T02:44:00.094Z,1.97
2023-01-25T02:46:31.147Z,2.04
2023-01-25T02:49:00.600Z,2.08
2023-01-25T02:51:33.127Z,2.08
2023-01-25T02:54:02.141Z,2.15
2023-01-25T02:56:31.233Z,2.18
2023-01-25T02:59:04.640Z,2.17
2023-01-25T03:01:35.603Z,2.18
2023-01-25T03:04:05.182Z,2.21
2023-01-25T03:06:35.572Z,2.30
2023-01-25T03:09:05.736Z,2.33
2023-01-25T03:11:34.675Z,2.24
2023-01-25T03:14:03.277Z,2.11
2023-01-25T03:16:32.022Z,2.05
2023-01-25T03:19:00.545Z,2.05
2023-01-25T03:21:29.721Z,2.16
2023-01-25T03:24:00.772Z,2.22
2023-01-25T03:26:54.830Z,2.17
2023-01-25T03:29:28.097Z,2.02
2023-01-25T03:31:56.940Z,2.03
2023-01-25T03:34:25.732Z,2.02
2023-01-25T03:36:54.042Z,2.03
2023-01-25T03:39:22.607Z,1.96
2023-01-25T03:41:51.091Z,1.89
2023-01-25T03:44:19.439Z,1.87
2023-01-25T03:46:47.900Z,1.84
2023-01-25T03:49:17.794Z,1.81
2023-01-25T03:51:46.969Z,1.82
2023-01-25T03:54:15.768Z,1.87
2023-01-25T03:56:44.219Z,1.93
2023-01-25T03:59:17.135Z,2.07
2023-01-25T04:01:46.421Z,2.11
2023-01-25T04:04:15.126Z,2.00
2023-01-25T04:06:44.978Z,1.98
2023-01-25T04:09:13.803Z,1.98
2023-01-25T04:11:50.004Z,1.96
2023-01-25T04:14:28.345Z,1.94
2023-01-25T04:17:04.663Z,1.87
2023-01-25T04:19:37.987Z,1.87
2023-01-25T04:22:08.217Z,1.82
2023-01-25T04:24:39.099Z,1.80
2023-01-25T04:27:08.466Z,1.77
2023-01-25T04:29:42.261Z,1.80
2023-01-25T04:32:15.281Z,1.80
2023-01-25T04:34:44.218Z,1.87
2023-01-25T04:37:15.989Z,1.87
2023-01-25T04:39:59.350Z,1.89
2023-01-25T04:42:28.348Z,1.85
2023-01-25T04:44:58.168Z,1.89
2023-01-25T04:47:28.166Z,1.93
2023-01-25T04:49:57.339Z,2.01
2023-01-25T04:52:26.488Z,2.12
2023-01-25T04:54:54.799Z,2.01
2023-01-25T04:57:23.564Z,1.97
2023-01-25T04:59:53.678Z,1.86
2023-01-25T05:02:23.027Z,1.96
2023-01-25T05:04:51.924Z,1.87
2023-01-25T05:07:21.214Z,1.95
2023-01-25T05:09:49.708Z,1.90
2023-01-25T05:12:20.333Z,1.97
2023-01-25T05:14:55.687Z,1.98
2023-01-25T05:17:24.762Z,2.01
2023-01-25T05:19:53.299Z,2.01
2023-01-25T05:22:23.904Z,2.06
2023-01-25T05:24:55.044Z,2.05
2023-01-25T05:27:23.737Z,2.04
2023-01-25T05:29:56.002Z,2.06
2023-01-25T05:32:50.910Z,2.04
2023-01-25T05:35:19.556Z,2.06
2023-01-25T05:37:48.046Z,2.06
2023-01-25T05:40:20.436Z,2.07
2023-01-25T05:42:55.280Z,2.13
2023-01-25T05:45:23.761Z,2.09
2023-01-25T05:47:56.322Z,2.03
2023-01-25T05:50:24.848Z,1.99
2023-01-25T05:53:05.223Z,2.02
2023-01-25T05:55:36.260Z,2.06
2023-01-25T05:58:07.979Z,2.07
2023-01-25T06:00:36.427Z,2.12
2023-01-25T06:03:05.095Z,2.07
2023-01-25T06:05:37.663Z,2.00
2023-01-25T06:08:06.244Z,1.95
2023-01-25T06:10:43.946Z,1.97
2023-01-25T06:13:12.358Z,2.06
2023-01-25T06:15:40.698Z,1.97
2023-01-25T06:18:31.270Z,1.92
2023-01-25T06:21:18.305Z,1.97
2023-01-25T06:23:46.797Z,1.95
2023-01-25T06:26:16.021Z,1.95
2023-01-25T06:28:44.811Z,1.98
2023-01-25T06:31:15.063Z,1.96
2023-01-25T06:33:47.677Z,1.97
2023-01-25T06:36:19.670Z,1.97
2023-01-25T06:38:51.201Z,1.90
2023-01-25T06:41:20.432Z,1.91
2023-01-25T06:43:51.396Z,1.95
2023-01-25T06:46:20.111Z,1.93
2023-01-25T06:48:48.472Z,1.87
2023-01-25T06:51:17.940Z,1.86
2023-01-25T06:53:47.729Z,1.99
2023-01-25T06:56:17.979Z,1.97
2023-01-25T06:58:47.061Z,1.90
2023-01-25T07:01:18.998Z,1.84
2023-01-25T07:03:50.094Z,1.91
2023-01-25T07:06:19.368Z,1.83
2023-01-25T07:08:48.240Z,1.79
2023-01-25T07:11:18.192Z,1.84
2023-01-25T07:13:47.563Z,1.84
2023-01-25T07:16:19.085Z,1.86
2023-01-25T07:18:47.666Z,1.85
2023-01-25T07:21:17.843Z,1.89
2023-01-25T07:23:46.957Z,1.92
2023-01-25T07:26:18.032Z,2.18
2023-01-25T07:28:47.764Z,3.00
2023-01-25T07:31:17.458Z,2.56
2023-01-25T07:33:49.800Z,2.34
2023-01-25T07:36:19.189Z,2.30
2023-01-25T07:38:48.308Z,2.21
2023-01-25T07:41:17.313Z,2.15
2023-01-25T07:43:46.128Z,2.10
2023-01-25T07:46:19.744Z,2.11
2023-01-25T07:48:49.780Z,2.13
2023-01-25T07:51:23.319Z,2.16
2023-01-25T07:53:53.941Z,2.18
2023-01-25T07:56:24.451Z,2.18
2023-01-25T07:58:57.309Z,2.14
2023-01-25T08:01:27.713Z,2.08
2023-01-25T08:03:56.729Z,2.08
2023-01-25T08:06:29.963Z,2.05
2023-01-25T08:08:59.428Z,2.09
2023-01-25T08:11:30.024Z,2.08
2023-01-25T08:14:01.179Z,2.04
2023-01-25T08:16:31.225Z,2.06
2023-01-25T08:19:02.707Z,1.99
2023-01-25T08:21:32.849Z,1.89
2023-01-25T08:24:04.087Z,2.00
2023-01-25T08:26:33.065Z,1.97
2023-01-25T08:29:01.600Z,1.95
2023-01-25T08:31:32.940Z,2.06
2023-01-25T08:34:04.488Z,2.00
2023-01-25T08:36:33.807Z,2.01
2023-01-25T08:39:05.550Z,2.14
2023-01-25T08:41:35.636Z,2.08
2023-01-25T08:44:05.481Z,1.99
2023-01-25T08:46:34.842Z,1.94
2023-01-25T08:49:04.330Z,1.88
2023-01-25T08:51:33.627Z,1.93
2023-01-25T08:54:07.500Z,1.98
2023-01-25T08:56:37.848Z,2.05
2023-01-25T08:59:10.472Z,2.04
2023-01-25T09:01:39.397Z,1.97
2023-01-25T09:04:08.611Z,1.93
2023-01-25T09:06:37.203Z,1.98
2023-01-25T09:09:07.738Z,2.06
2023-01-25T09:11:37.552Z,2.07
2023-01-25T09:14:06.469Z,2.04
2023-01-25T09:16:35.390Z,2.10
2023-01-25T09:19:05.209Z,2.10
2023-01-25T09:21:36.914Z,2.07
2023-01-25T09:24:07.894Z,2.02
2023-01-25T09:26:39.439Z,1.92
2023-01-25T09:29:10.483Z,1.94
2023-01-25T09:31:40.060Z,1.84
2023-01-25T09:34:19.714Z,1.80
2023-01-25T09:36:48.037Z,1.79
2023-01-25T09:39:16.925Z,1.82
2023-01-25T09:42:15.438Z,1.88
2023-01-25T09:45:10.713Z,1.87
2023-01-25T09:47:45.750Z,1.94
2023-01-25T09:50:31.640Z,1.94
2023-01-25T09:53:16.446Z,1.89
2023-01-25T09:55:50.379Z,2.02
2023-01-25T09:58:22.549Z,2.06
2023-01-25T10:00:58.924Z,2.02
2023-01-25T10:03:33.482Z,2.05
2023-01-25T10:06:03.042Z,2.15
2023-01-25T10:08:36.112Z,2.14
2023-01-25T10:11:20.134Z,2.16
2023-01-25T10:13:49.101Z,2.20
2023-01-25T10:16:26.151Z,2.13
2023-01-25T10:19:01.139Z,2.07
2023-01-25T10:21:35.099Z,2.05
2023-01-25T10:24:24.618Z,2.05
2023-01-25T10:26:56.476Z,2.14
2023-01-25T10:29:28.121Z,2.23
2023-01-25T10:32:02.351Z,2.27
2023-01-25T10:34:54.293Z,2.24
2023-01-25T10:37:27.471Z,2.23
2023-01-25T10:40:02.360Z,2.30
2023-01-25T10:42:38.234Z,2.36
2023-01-25T10:45:13.354Z,2.37
2023-01-25T10:47:45.520Z,2.37
2023-01-25T10:50:45.563Z,2.30
2023-01-25T10:53:35.740Z,2.28
2023-01-25T10:56:19.162Z,2.16
2023-01-25T10:58:48.920Z,2.14
2023-01-25T11:01:28.839Z,2.22
2023-01-25T11:03:58.181Z,2.18
2023-01-25T11:06:35.007Z,2.22
2023-01-25T11:09:30.769Z,2.18
2023-01-25T11:12:01.578Z,2.21
2023-01-25T11:14:31.595Z,2.12
2023-01-25T11:17:01.671Z,2.12
2023-01-25T11:19:34.114Z,2.19
2023-01-25T11:22:19.442Z,2.19
2023-01-25T11:24:47.886Z,2.21
2023-01-25T11:27:20.027Z,2.21
2023-01-25T11:30:09.753Z,2.14
2023-01-25T11:32:40.175Z,2.13
2023-01-25T11:35:14.591Z,2.61
2023-01-25T11:37:58.429Z,2.48
2023-01-25T11:40:38.068Z,2.35
2023-01-25T11:43:20.940Z,2.32
2023-01-25T11:46:25.075Z,2.22
2023-01-25T11:49:09.270Z,2.22
2023-01-25T11:51:43.306Z,2.39
2023-01-25T11:54:40.795Z,2.35
2023-01-25T11:57:28.383Z,2.29
2023-01-25T12:00:10.697Z,2.31
2023-01-25T12:03:05.625Z,2.24
2023-01-25T12:05:50.086Z,2.20
2023-01-25T12:08:40.482Z,2.15
2023-01-25T12:11:16.689Z,2.18
2023-01-25T12:14:00.195Z,4.22
2023-01-25T12:16:51.875Z,3.52
2023-01-25T12:19:36.410Z,3.05
2023-01-25T12:22:34.520Z,2.78
2023-01-25T12:25:17.018Z,2.68
2023-01-25T12:28:02.609Z,2.62
2023-01-25T12:30:42.124Z,2.65
2023-01-25T12:33:16.544Z,2.55
2023-01-25T12:35:51.798Z,2.42
2023-01-25T12:38:26.981Z,2.32
2023-01-25T12:40:59.075Z,2.34
2023-01-25T12:43:36.757Z,2.33
2023-01-25T12:46:15.631Z,2.29
2023-01-25T12:48:49.057Z,2.33
2023-01-25T12:51:18.840Z,2.30
2023-01-25T12:53:48.343Z,2.35
2023-01-25T12:56:32.081Z,2.33
2023-01-25T12:59:11.118Z,2.22
2023-01-25T13:01:45.232Z,2.19
2023-01-25T13:04:27.524Z,2.26
2023-01-25T13:07:01.299Z,2.27
2023-01-25T13:09:40.262Z,2.30
2023-01-25T13:12:12.251Z,2.22
2023-01-25T13:14:42.098Z,2.34
2023-01-25T13:17:22.535Z,2.36
2023-01-25T13:19:53.118Z,2.37
2023-01-25T13:23:00.141Z,2.41
2023-01-25T13:25:28.589Z,2.40
2023-01-25T13:28:28.559Z,2.36
2023-01-25T13:30:57.072Z,2.37
2023-01-25T13:33:35.299Z,2.45
2023-01-25T13:36:38.632Z,2.75
2023-01-25T13:39:24.529Z,2.69
2023-01-25T13:41:59.627Z,2.68
2023-01-25T13:44:30.279Z,2.68
2023-01-25T13:47:02.016Z,2.71
2023-01-25T13:49:36.632Z,2.51
2023-01-25T13:52:05.732Z,2.45
2023-01-25T13:54:41.834Z,2.39
2023-01-25T13:57:14.281Z,2.32
2023-01-25T13:59:42.255Z,2.34
2023-01-25T14:02:18.373Z,2.41
2023-01-25T14:04:48.895Z,2.33
2023-01-25T14:07:19.815Z,2.29
2023-01-25T14:09:49.218Z,2.25
2023-01-25T14:12:30.558Z,2.32
2023-01-25T14:15:16.111Z,2.43
2023-01-25T14:17:45.007Z,2.49
2023-01-25T14:20:21.782Z,2.44
2023-01-25T14:22:51.297Z,2.43
2023-01-25T14:25:21.953Z,2.39
2023-01-25T14:27:53.428Z,2.40
2023-01-25T14:30:24.515Z,2.33
2023-01-25T14:32:54.503Z,2.46
2023-01-25T14:35:56.316Z,2.47
2023-01-25T14:38:29.891Z,2.46
2023-01-25T14:41:03.197Z,2.44
2023-01-25T14:43:33.868Z,2.54
2023-01-25T14:46:22.846Z,2.49
2023-01-25T14:49:05.760Z,2.48
2023-01-25T14:51:39.985Z,2.44
2023-01-25T14:54:18.038Z,2.45
2023-01-25T14:56:48.565Z,2.46
2023-01-25T14:59:40.163Z,2.55
2023-01-25T15:02:23.301Z,2.49
2023-01-25T15:05:00.737Z,2.45
2023-01-25T15:07:41.277Z,2.47
2023-01-25T15:10:18.827Z,2.47
2023-01-25T15:13:07.696Z,2.43
2023-01-25T15:15:52.837Z,2.41
2023-01-25T15:18:47.001Z,2.39
2023-01-25T15:21:15.525Z,2.42
2023-01-25T15:23:45.916Z,2.43
2023-01-25T15:26:20.008Z,2.47
2023-01-25T15:28:49.497Z,2.39
2023-01-25T15:31:21.924Z,2.47
2023-01-25T15:33:49.748Z,2.56
2023-01-25T15:36:19.599Z,2.61
2023-01-25T15:38:47.904Z,2.64
2023-01-25T15:41:17.999Z,2.47
2023-01-25T15:43:46.719Z,2.40
2023-01-25T15:46:17.693Z,2.23
2023-01-25T15:48:47.864Z,2.16
2023-01-25T15:51:16.849Z,2.16
2023-01-25T15:53:46.209Z,2.23
2023-01-25T15:56:17.748Z,2.23
2023-01-25T15:58:49.490Z,2.22
2023-01-25T16:01:18.346Z,2.36
2023-01-25T16:03:46.807Z,2.41
2023-01-25T16:06:31.148Z,2.34
2023-01-25T16:08:59.890Z,2.39
2023-01-25T16:11:28.296Z,2.50
2023-01-25T16:13:57.174Z,2.51
2023-01-25T16:16:26.379Z,2.47
2023-01-25T16:18:55.026Z,2.38
2023-01-25T16:21:24.077Z,2.38
2023-01-25T16:23:52.704Z,2.38
2023-01-25T16:26:25.649Z,2.36
2023-01-25T16:28:54.427Z,2.31
2023-01-25T16:31:32.543Z,2.27
2023-01-25T16:34:02.238Z,2.23
2023-01-25T16:36:31.210Z,2.23
2023-01-25T16:39:09.296Z,2.32
2023-01-25T16:41:37.802Z,2.42
2023-01-25T16:44:06.258Z,2.39
2023-01-25T16:46:34.706Z,2.40
2023-01-25T16:49:05.983Z,2.51
2023-01-25T16:51:36.257Z,2.43
2023-01-25T16:54:04.823Z,2.36
2023-01-25T16:56:35.472Z,2.38
2023-01-25T16:59:05.565Z,2.39
2023-01-25T17:01:34.300Z,2.39
2023-01-25T17:04:02.911Z,2.43
2023-01-25T17:06:34.127Z,2.39
2023-01-25T17:09:16.501Z,2.50
2023-01-25T17:11:50.198Z,2.59
2023-01-25T17:14:19.042Z,2.66
2023-01-25T17:16:50.507Z,2.70
2023-01-25T17:19:20.155Z,2.74
2023-01-25T17:21:49.221Z,2.78
2023-01-25T17:24:20.649Z,2.79
2023-01-25T17:26:50.157Z,2.67
2023-01-25T17:29:18.596Z,2.60
2023-01-25T17:31:47.466Z,2.50
2023-01-25T17:34:17.772Z,2.47
2023-01-25T17:36:46.328Z,2.46
2023-01-25T17:39:17.196Z,2.46
2023-01-25T17:41:47.261Z,2.46
2023-01-25T17:44:20.065Z,2.52
2023-01-25T17:46:49.901Z,2.48
2023-01-25T17:49:21.604Z,2.44
2023-01-25T17:51:50.151Z,2.51
2023-01-25T17:54:19.052Z,2.61
2023-01-25T17:56:47.541Z,2.55
2023-01-25T17:59:16.186Z,2.50
2023-01-25T18:01:44.854Z,2.49
2023-01-25T18:04:16.744Z,2.49
2023-01-25T18:06:45.662Z,2.47
2023-01-25T18:09:14.120Z,2.41
2023-01-25T18:11:42.686Z,2.38
2023-01-25T18:14:15.900Z,2.46
2023-01-25T18:16:45.646Z,2.54
2023-01-25T18:19:14.838Z,2.48
2023-01-25T18:21:43.901Z,2.55
2023-01-25T18:24:29.517Z,2.57
2023-01-25T18:27:05.209Z,2.61
2023-01-25T18:29:45.543Z,2.67
2023-01-25T18:32:14.641Z,2.64
2023-01-25T18:34:43.477Z,2.63
2023-01-25T18:37:17.605Z,2.55
2023-01-25T18:39:46.748Z,2.51
2023-01-25T18:42:15.579Z,2.39
2023-01-25T18:44:47.601Z,2.45
2023-01-25T18:47:18.101Z,2.42
2023-01-25T18:49:48.681Z,2.52
2023-01-25T18:52:18.554Z,2.56
2023-01-25T18:54:48.309Z,2.46
2023-01-25T18:57:17.437Z,2.47
2023-01-25T18:59:46.312Z,2.52
2023-01-25T19:02:16.363Z,2.44
2023-01-25T19:04:45.828Z,2.48
2023-01-25T19:07:14.575Z,2.57
2023-01-25T19:09:43.309Z,2.68
2023-01-25T19:12:12.190Z,2.71
2023-01-25T19:14:40.697Z,2.76
2023-01-25T19:17:09.395Z,2.79
2023-01-25T19:19:37.757Z,2.79
2023-01-25T19:22:06.183Z,2.72
2023-01-25T19:24:34.493Z,2.59
2023-01-25T19:27:03.150Z,2.49
2023-01-25T19:29:31.624Z,2.45
2023-01-25T19:31:59.977Z,2.50
2023-01-25T19:34:29.214Z,2.60
2023-01-25T19:36:59.037Z,2.64
2023-01-25T19:39:28.417Z,2.57
2023-01-25T19:41:57.291Z,2.53
2023-01-25T19:44:26.219Z,2.47
2023-01-25T19:46:54.631Z,2.48
2023-01-25T19:49:23.065Z,2.60
2023-01-25T19:51:52.489Z,2.51
2023-01-25T19:54:22.365Z,2.44
2023-01-25T19:56:51.559Z,2.47
2023-01-25T19:59:25.180Z,2.53
2023-01-25T20:01:54.513Z,2.56
2023-01-25T20:04:24.352Z,2.50
2023-01-25T20:06:53.114Z,2.52
2023-01-25T20:09:28.448Z,2.46
2023-01-25T20:11:58.516Z,2.39
2023-01-25T20:14:26.969Z,2.35
2023-01-25T20:16:55.475Z,2.36
2023-01-25T20:19:23.943Z,2.37
2023-01-25T20:21:52.795Z,2.44
2023-01-25T20:24:21.496Z,2.44
2023-01-25T20:26:50.988Z,2.44
2023-01-25T20:29:20.793Z,2.40
2023-01-25T20:31:49.291Z,2.48
2023-01-25T20:34:19.817Z,2.42
2023-01-25T20:36:49.754Z,2.41
2023-01-25T20:39:19.768Z,2.47
2023-01-25T20:41:49.331Z,2.43
2023-01-25T20:44:18.014Z,2.40
2023-01-25T20:46:46.664Z,2.39
2023-01-25T20:49:17.465Z,2.32
2023-01-25T20:51:46.477Z,2.31
2023-01-25T20:54:16.234Z,2.38
2023-01-25T20:56:47.179Z,2.41
2023-01-25T20:59:17.753Z,2.46
2023-01-25T21:01:50.118Z,2.48
2023-01-25T21:04:20.612Z,2.42
2023-01-25T21:06:49.065Z,2.56
2023-01-25T21:09:18.888Z,2.60
2023-01-25T21:11:49.079Z,2.64
2023-01-25T21:14:18.870Z,2.68
2023-01-25T21:16:48.847Z,2.73
2023-01-25T21:19:18.564Z,2.73
2023-01-25T21:21:48.264Z,2.74
2023-01-25T21:24:17.649Z,2.63
2023-01-25T21:26:47.365Z,2.57
2023-01-25T21:29:15.764Z,2.63
2023-01-25T21:31:45.917Z,2.60
2023-01-25T21:34:14.414Z,2.50
2023-01-25T21:36:43.695Z,2.48
2023-01-25T21:39:12.380Z,2.46
2023-01-25T21:41:41.152Z,2.43
2023-01-25T21:44:28.733Z,2.39
2023-01-25T21:47:23.537Z,2.44
2023-01-25T21:50:04.190Z,2.45
2023-01-25T21:52:36.144Z,2.42
2023-01-25T21:55:06.382Z,2.40
2023-01-25T21:57:35.189Z,2.41
2023-01-25T22:00:05.906Z,2.41
2023-01-25T22:02:35.186Z,2.42
2023-01-25T22:05:03.876Z,2.46
2023-01-25T22:07:33.744Z,2.57
2023-01-25T22:10:02.426Z,2.66
2023-01-25T22:12:30.933Z,2.74
2023-01-25T22:14:59.442Z,2.80
2023-01-25T22:17:28.605Z,2.83
2023-01-25T22:19:57.466Z,2.87
2023-01-25T22:22:25.969Z,2.89
2023-01-25T22:24:56.134Z,2.89
2023-01-25T22:27:37.215Z,2.91
2023-01-25T22:30:09.946Z,2.93
2023-01-25T22:32:38.736Z,2.91
2023-01-25T22:35:09.566Z,2.95
2023-01-25T22:37:38.449Z,2.96
2023-01-25T22:40:10.553Z,2.97
2023-01-25T22:42:39.392Z,2.95
2023-01-25T22:45:09.823Z,2.97
2023-01-25T22:47:40.713Z,3.01
2023-01-25T22:50:11.920Z,3.01
2023-01-25T22:52:40.880Z,2.90
2023-01-25T22:55:10.262Z,2.81
2023-01-25T22:57:38.511Z,2.74
2023-01-25T23:00:12.187Z,2.68
2023-01-25T23:02:40.993Z,2.65
2023-01-25T23:05:10.752Z,2.66
2023-01-25T23:07:39.655Z,2.66
2023-01-25T23:10:11.505Z,2.64
2023-01-25T23:12:40.335Z,2.66
2023-01-25T23:15:14.634Z,2.61
2023-01-25T23:18:01.659Z,2.56
2023-01-25T23:20:30.462Z,2.50
2023-01-25T23:22:59.105Z,2.54
2023-01-25T23:25:27.685Z,2.53
2023-01-25T23:27:56.183Z,2.70
2023-01-25T23:30:24.953Z,2.80
2023-01-25T23:32:54.016Z,2.86
2023-01-25T23:35:22.733Z,2.92
2023-01-25T23:37:51.247Z,2.96
2023-01-25T23:40:20.245Z,2.98
2023-01-25T23:42:49.097Z,2.96
2023-01-25T23:45:17.856Z,2.80
2023-01-25T23:47:46.766Z,2.80
2023-01-25T23:50:16.028Z,2.84
2023-01-25T23:52:44.412Z,2.76
2023-01-25T23:55:13.170Z,2.74
2023-01-25T23:57:41.743Z,2.66
